createdAt,value
2018-10-06T00:01:05.929Z,9.80
2018-10-06T00:03:36.206Z,9.80
2018-10-06T00:06:05.477Z,9.80
2018-10-06T00:08:34.115Z,9.80
2018-10-06T00:11:02.753Z,9.80
2018-10-06T00:13:31.105Z,9.90
2018-10-06T00:15:59.294Z,9.90
2018-10-06T00:18:27.913Z,9.90
2018-10-06T00:20:55.985Z,9.90
2018-10-06T00:23:24.061Z,9.80
2018-10-06T00:25:52.560Z,9.80
2018-10-06T00:28:22.024Z,9.80
2018-10-06T00:30:50.984Z,9.80
2018-10-06T00:33:20.520Z,9.80
2018-10-06T00:35:48.576Z,9.80
2018-10-06T00:38:18.169Z,9.80
2018-10-06T00:40:46.749Z,9.80
2018-10-06T00:43:15.050Z,9.70
2018-10-06T00:45:43.531Z,9.70
2018-10-06T00:48:12.277Z,9.70
2018-10-06T00:50:41.061Z,9.60
2018-10-06T00:53:10.853Z,9.60
2018-10-06T00:55:39.561Z,9.60
2018-10-06T00:58:08.269Z,9.50
2018-10-06T01:00:36.958Z,9.50
2018-10-06T01:03:05.633Z,9.40
2018-10-06T01:05:34.029Z,9.30
2018-10-06T01:08:03.326Z,9.30
2018-10-06T01:10:31.445Z,9.40
2018-10-06T01:12:59.520Z,9.40
2018-10-06T01:15:28.713Z,9.30
2018-10-06T01:17:57.014Z,9.30
2018-10-06T01:20:26.734Z,9.30
2018-10-06T01:22:55.733Z,9.30
2018-10-06T01:25:23.981Z,9.30
2018-10-06T01:27:52.402Z,9.20
2018-10-06T01:30:21.637Z,9.00
2018-10-06T01:32:49.736Z,8.90
2018-10-06T01:35:17.957Z,8.40
2018-10-06T01:37:46.151Z,8.90
2018-10-06T01:40:14.833Z,8.90
2018-10-06T01:42:43.658Z,9.00
2018-10-06T01:45:12.085Z,8.90
2018-10-06T01:47:40.637Z,8.90
2018-10-06T01:50:09.210Z,8.90
2018-10-06T01:52:38.677Z,8.80
2018-10-06T01:55:06.759Z,8.80
2018-10-06T01:57:35.229Z,8.90
2018-10-06T02:00:03.985Z,8.80
2018-10-06T02:02:33.000Z,8.90
2018-10-06T02:05:01.879Z,8.80
2018-10-06T02:07:31.082Z,8.80
2018-10-06T02:09:59.865Z,8.90
2018-10-06T02:12:27.989Z,8.80
2018-10-06T02:14:56.629Z,8.80
2018-10-06T02:17:25.153Z,8.80
2018-10-06T02:19:55.020Z,8.80
2018-10-06T02:22:24.469Z,8.70
2018-10-06T02:24:53.102Z,8.60
2018-10-06T02:27:21.923Z,8.50
2018-10-06T02:29:51.391Z,8.30
2018-10-06T02:32:20.134Z,8.30
2018-10-06T02:34:48.245Z,8.30
2018-10-06T02:37:17.333Z,8.30
2018-10-06T02:39:45.765Z,8.30
2018-10-06T02:42:14.781Z,8.40
2018-10-06T02:44:43.291Z,8.40
2018-10-06T02:47:13.038Z,8.30
2018-10-06T02:49:41.211Z,8.20
2018-10-06T02:52:09.501Z,8.20
2018-10-06T02:54:37.649Z,8.10
2018-10-06T02:57:06.065Z,8.00
2018-10-06T02:59:34.615Z,8.00
2018-10-06T03:02:03.613Z,8.00
2018-10-06T03:04:31.738Z,7.90
2018-10-06T03:07:00.261Z,7.80
2018-10-06T03:09:28.973Z,7.70
2018-10-06T03:11:57.653Z,7.70
2018-10-06T03:14:25.825Z,7.80
2018-10-06T03:16:54.090Z,7.70
2018-10-06T03:19:22.236Z,7.70
2018-10-06T03:21:50.487Z,7.60
2018-10-06T03:24:19.773Z,7.60
2018-10-06T03:26:48.425Z,7.70
2018-10-06T03:29:17.317Z,7.60
2018-10-06T03:31:45.622Z,7.60
2018-10-06T03:34:14.289Z,7.70
2018-10-06T03:36:43.418Z,7.70
2018-10-06T03:39:11.781Z,7.80
2018-10-06T03:41:41.049Z,7.80
2018-10-06T03:44:09.609Z,7.80
2018-10-06T03:46:38.842Z,7.90
2018-10-06T03:49:07.673Z,7.60
2018-10-06T03:51:37.098Z,7.60
2018-10-06T03:54:06.558Z,7.40
2018-10-06T03:56:36.466Z,7.40
2018-10-06T03:59:05.382Z,7.40
2018-10-06T04:01:33.613Z,7.30
2018-10-06T04:04:02.218Z,7.10
2018-10-06T04:06:31.638Z,7.20
2018-10-06T04:09:00.530Z,7.20
2018-10-06T04:11:31.191Z,7.40
2018-10-06T04:13:59.441Z,7.40
2018-10-06T04:16:28.549Z,7.30
2018-10-06T04:18:57.361Z,7.40
2018-10-06T04:21:27.093Z,7.30
2018-10-06T04:23:55.149Z,7.40
2018-10-06T04:26:23.471Z,7.40
2018-10-06T04:28:52.481Z,7.50
2018-10-06T04:31:22.957Z,7.50
2018-10-06T04:33:51.762Z,7.30
2018-10-06T04:36:20.545Z,7.30
2018-10-06T04:38:49.633Z,7.00
2018-10-06T04:41:18.456Z,6.70
2018-10-06T04:43:47.505Z,6.90
2018-10-06T04:46:15.651Z,7.00
2018-10-06T04:48:43.944Z,7.00
2018-10-06T04:51:12.397Z,6.90
2018-10-06T04:53:40.458Z,6.90
2018-10-06T04:56:08.601Z,6.90
2018-10-06T04:58:36.879Z,6.70
2018-10-06T05:01:05.443Z,6.70
2018-10-06T05:03:34.001Z,6.80
2018-10-06T05:06:02.884Z,6.80
2018-10-06T05:08:31.590Z,6.60
2018-10-06T05:10:59.975Z,6.70
2018-10-06T05:13:28.966Z,6.80
2018-10-06T05:15:58.473Z,6.80
2018-10-06T05:18:27.208Z,6.90
2018-10-06T05:20:55.449Z,6.80
2018-10-06T05:23:23.644Z,6.40
2018-10-06T05:25:52.117Z,6.50
2018-10-06T05:28:20.925Z,6.20
2018-10-06T05:30:50.909Z,6.30
2018-10-06T05:33:19.042Z,6.40
2018-10-06T05:35:48.033Z,6.50
2018-10-06T05:38:16.345Z,6.60
2018-10-06T05:40:44.933Z,6.70
2018-10-06T05:43:14.965Z,6.70
2018-10-06T05:45:43.429Z,6.60
2018-10-06T05:48:11.596Z,6.70
2018-10-06T05:50:40.009Z,6.50
2018-10-06T05:53:08.671Z,6.50
2018-10-06T05:55:37.343Z,6.50
2018-10-06T05:58:05.995Z,6.40
2018-10-06T06:00:34.858Z,6.30
2018-10-06T06:03:03.637Z,6.30
2018-10-06T06:05:31.921Z,6.40
2018-10-06T06:08:00.868Z,6.50
2018-10-06T06:10:29.401Z,6.60
2018-10-06T06:12:58.246Z,6.60
2018-10-06T06:15:26.713Z,6.70
2018-10-06T06:17:54.857Z,6.80
2018-10-06T06:20:23.017Z,6.90
2018-10-06T06:22:51.300Z,7.00
2018-10-06T06:25:20.232Z,7.10
2018-10-06T06:27:49.476Z,7.20
2018-10-06T06:30:18.570Z,7.30
2018-10-06T06:32:47.025Z,7.40
2018-10-06T06:35:15.346Z,7.40
2018-10-06T06:37:43.441Z,7.50
2018-10-06T06:40:12.806Z,7.60
2018-10-06T06:42:40.993Z,7.70
2018-10-06T06:45:09.951Z,7.80
2018-10-06T06:47:38.061Z,7.90
2018-10-06T06:50:06.865Z,8.00
2018-10-06T06:52:35.821Z,8.20
2018-10-06T06:55:04.418Z,8.30
2018-10-06T06:57:32.948Z,8.30
2018-10-06T07:00:01.642Z,8.50
2018-10-06T07:02:30.057Z,8.60
2018-10-06T07:04:58.925Z,8.70
2018-10-06T07:07:27.157Z,8.80
2018-10-06T07:09:55.877Z,9.00
2018-10-06T07:12:25.293Z,9.10
2018-10-06T07:14:54.079Z,9.20
2018-10-06T07:17:23.359Z,9.30
2018-10-06T07:19:51.690Z,9.40
2018-10-06T07:22:19.752Z,9.50
2018-10-06T07:24:48.645Z,9.60
2018-10-06T07:27:16.864Z,9.60
2018-10-06T07:29:45.457Z,9.70
2018-10-06T07:33:18.288Z,9.70
2018-10-06T07:35:46.905Z,9.70
2018-10-06T07:38:15.006Z,9.80
2018-10-06T07:40:43.173Z,9.90
2018-10-06T07:43:12.886Z,9.90
2018-10-06T07:45:41.785Z,10.00
2018-10-06T07:48:10.998Z,10.20
2018-10-06T07:50:39.993Z,10.30
2018-10-06T07:53:08.074Z,10.50
2018-10-06T07:55:37.265Z,10.70
2018-10-06T07:58:05.941Z,10.90
2018-10-06T08:00:34.925Z,11.20
2018-10-06T08:03:03.792Z,11.40
2018-10-06T08:05:32.443Z,11.60
2018-10-06T08:08:00.506Z,11.70
2018-10-06T08:10:30.401Z,11.90
2018-10-06T08:12:58.909Z,12.00
2018-10-06T08:15:27.090Z,12.30
2018-10-06T08:17:55.284Z,12.60
2018-10-06T08:20:23.584Z,12.80
2018-10-06T08:22:52.865Z,13.10
2018-10-06T08:25:21.721Z,13.20
2018-10-06T08:27:51.461Z,13.30
2018-10-06T08:30:21.185Z,13.40
2018-10-06T08:32:50.011Z,13.50
2018-10-06T08:35:18.161Z,13.60
2018-10-06T08:37:47.293Z,13.80
2018-10-06T08:40:17.176Z,14.10
2018-10-06T08:42:46.128Z,14.50
2018-10-06T08:45:16.169Z,14.50
2018-10-06T08:47:44.402Z,14.50
2018-10-06T08:50:13.917Z,14.30
2018-10-06T08:52:42.945Z,14.30
2018-10-06T08:55:11.602Z,14.50
2018-10-06T08:57:40.277Z,14.80
2018-10-06T09:00:09.578Z,15.10
2018-10-06T09:02:38.369Z,15.70
2018-10-06T09:05:08.007Z,17.10
2018-10-06T09:07:36.497Z,18.60
2018-10-06T09:10:05.001Z,19.80
2018-10-06T09:12:33.827Z,20.60
2018-10-06T09:15:01.909Z,21.10
2018-10-06T09:17:31.012Z,21.80
2018-10-06T09:19:59.566Z,21.30
2018-10-06T09:22:28.553Z,20.40
2018-10-06T09:24:57.079Z,21.00
2018-10-06T09:27:25.997Z,20.90
2018-10-06T09:29:54.248Z,21.50
2018-10-06T09:32:22.460Z,21.70
2018-10-06T09:34:50.893Z,21.30
2018-10-06T09:37:19.251Z,21.00
2018-10-06T09:39:47.489Z,21.40
2018-10-06T09:42:17.604Z,22.90
2018-10-06T09:44:46.350Z,23.40
2018-10-06T09:47:15.865Z,24.30
2018-10-06T09:49:44.517Z,23.60
2018-10-06T09:52:13.884Z,23.30
2018-10-06T09:54:43.607Z,22.70
2018-10-06T09:57:11.661Z,23.10
2018-10-06T09:59:41.245Z,23.30
2018-10-06T10:02:14.154Z,24.50
2018-10-06T10:04:42.317Z,25.20
2018-10-06T10:07:11.205Z,25.50
2018-10-06T10:09:40.339Z,25.10
2018-10-06T10:12:09.226Z,24.90
2018-10-06T10:14:37.849Z,25.80
2018-10-06T10:17:07.597Z,25.10
2018-10-06T10:19:35.897Z,25.30
2018-10-06T10:22:04.484Z,25.50
2018-10-06T10:24:33.866Z,24.90
2018-10-06T10:27:03.109Z,25.70
2018-10-06T10:29:33.141Z,26.20
2018-10-06T10:32:01.355Z,26.00
2018-10-06T10:34:30.551Z,26.60
2018-10-06T10:37:00.229Z,26.30
2018-10-06T10:39:29.010Z,26.90
2018-10-06T10:41:57.225Z,26.20
2018-10-06T10:44:26.676Z,26.80
2018-10-06T10:46:56.013Z,27.00
2018-10-06T10:49:25.871Z,26.90
2018-10-06T10:51:53.861Z,26.70
2018-10-06T10:54:23.010Z,27.00
2018-10-06T10:56:51.888Z,26.80
2018-10-06T10:59:20.926Z,26.80
2018-10-06T11:01:49.349Z,25.80
2018-10-06T11:04:17.501Z,26.20
2018-10-06T11:06:46.948Z,26.40
2018-10-06T11:09:16.226Z,26.20
2018-10-06T11:11:45.446Z,26.90
2018-10-06T11:14:13.665Z,26.60
2018-10-06T11:16:42.270Z,26.50
2018-10-06T11:19:12.801Z,26.30
2018-10-06T11:21:40.861Z,26.10
2018-10-06T11:24:10.905Z,26.00
2018-10-06T11:26:39.101Z,25.90
2018-10-06T11:29:08.546Z,25.60
2018-10-06T11:31:37.349Z,25.80
2018-10-06T11:34:06.277Z,25.90
2018-10-06T11:36:35.473Z,26.00
2018-10-06T11:39:05.050Z,25.70
2018-10-06T11:41:34.041Z,26.60
2018-10-06T11:44:02.425Z,26.40
2018-10-06T11:46:31.167Z,26.40
2018-10-06T11:48:59.683Z,26.30
2018-10-06T11:51:29.677Z,25.90
2018-10-06T11:53:58.625Z,25.90
2018-10-06T11:56:27.374Z,25.80
2018-10-06T11:58:55.605Z,25.60
2018-10-06T12:01:25.474Z,25.50
2018-10-06T12:03:53.829Z,25.20
2018-10-06T12:06:21.929Z,25.20
2018-10-06T12:08:50.643Z,24.70
2018-10-06T12:11:19.549Z,24.80
2018-10-06T12:13:47.725Z,23.80
2018-10-06T12:16:16.254Z,23.60
2018-10-06T12:18:46.465Z,22.90
2018-10-06T12:21:14.645Z,23.00
2018-10-06T12:23:43.385Z,23.00
2018-10-06T12:26:12.098Z,22.70
2018-10-06T12:28:40.326Z,22.50
2018-10-06T12:31:08.582Z,22.30
2018-10-06T12:33:37.233Z,21.90
2018-10-06T12:36:06.501Z,21.90
2018-10-06T12:38:34.721Z,21.70
2018-10-06T12:41:02.972Z,21.80
2018-10-06T12:43:32.277Z,21.70
2018-10-06T12:46:01.142Z,21.70
2018-10-06T12:48:29.293Z,21.70
2018-10-06T12:50:57.445Z,21.80
2018-10-06T12:53:27.383Z,21.70
2018-10-06T12:55:55.845Z,21.50
2018-10-06T12:58:24.246Z,21.30
2018-10-06T13:00:52.860Z,21.30
2018-10-06T13:03:21.049Z,21.20
2018-10-06T13:05:49.516Z,21.10
2018-10-06T13:08:18.446Z,21.00
2018-10-06T13:10:46.824Z,21.10
2018-10-06T13:13:15.173Z,21.10
2018-10-06T13:15:44.669Z,21.10
2018-10-06T13:18:13.308Z,21.20
2018-10-06T13:20:41.829Z,21.10
2018-10-06T13:23:11.331Z,21.10
2018-10-06T13:25:39.471Z,21.00
2018-10-06T13:28:07.718Z,21.00
2018-10-06T13:30:37.582Z,21.00
2018-10-06T13:33:06.629Z,20.90
2018-10-06T13:35:34.878Z,20.90
2018-10-06T13:38:02.990Z,20.90
2018-10-06T13:40:32.022Z,20.80
2018-10-06T13:43:01.714Z,20.60
2018-10-06T13:45:29.997Z,20.70
2018-10-06T13:47:59.186Z,20.90
2018-10-06T13:50:27.913Z,20.90
2018-10-06T13:52:56.204Z,20.80
2018-10-06T13:55:24.357Z,20.60
2018-10-06T13:57:52.573Z,20.50
2018-10-06T14:00:21.422Z,20.60
2018-10-06T14:02:49.619Z,20.60
2018-10-06T14:05:18.561Z,20.60
2018-10-06T14:07:47.023Z,20.40
2018-10-06T14:10:15.084Z,20.40
2018-10-06T14:12:43.508Z,20.50
2018-10-06T14:15:12.353Z,20.60
2018-10-06T14:17:41.401Z,20.60
2018-10-06T14:20:10.105Z,20.60
2018-10-06T14:22:39.957Z,20.60
2018-10-06T14:25:08.509Z,20.50
2018-10-06T14:27:36.946Z,20.50
2018-10-06T14:30:05.829Z,20.30
2018-10-06T14:32:33.958Z,20.20
2018-10-06T14:35:03.357Z,20.20
2018-10-06T14:37:33.001Z,20.10
2018-10-06T14:40:01.578Z,20.00
2018-10-06T14:42:31.068Z,20.00
2018-10-06T14:44:59.386Z,20.00
2018-10-06T14:47:32.452Z,20.00
2018-10-06T14:50:01.441Z,20.00
2018-10-06T14:52:30.538Z,19.90
2018-10-06T14:54:59.407Z,19.80
2018-10-06T14:57:29.422Z,19.90
2018-10-06T14:59:57.686Z,19.80
2018-10-06T15:02:27.597Z,19.80
2018-10-06T15:04:56.525Z,19.70
2018-10-06T15:07:26.088Z,19.60
2018-10-06T15:09:54.821Z,19.50
2018-10-06T15:12:23.493Z,19.50
2018-10-06T15:14:52.003Z,19.50
2018-10-06T15:17:21.009Z,19.50
2018-10-06T15:19:50.290Z,19.40
2018-10-06T15:22:19.262Z,19.50
2018-10-06T15:24:48.602Z,19.40
2018-10-06T15:27:17.181Z,19.50
2018-10-06T15:29:45.344Z,19.40
2018-10-06T15:32:14.517Z,19.20
2018-10-06T15:34:43.335Z,19.20
2018-10-06T15:37:12.095Z,19.20
2018-10-06T15:39:40.389Z,19.10
2018-10-06T15:42:09.090Z,19.10
2018-10-06T15:44:37.823Z,19.10
2018-10-06T15:47:07.160Z,19.00
2018-10-06T15:49:35.865Z,19.00
2018-10-06T15:52:05.377Z,18.90
2018-10-06T15:54:34.234Z,18.80
2018-10-06T15:57:02.361Z,18.60
2018-10-06T15:59:32.090Z,18.50
2018-10-06T16:02:00.177Z,18.30
2018-10-06T16:04:28.409Z,18.20
2018-10-06T16:06:57.978Z,18.20
2018-10-06T16:09:27.410Z,18.10
2018-10-06T16:11:57.290Z,18.10
2018-10-06T16:14:26.461Z,18.00
2018-10-06T16:16:55.309Z,18.00
2018-10-06T16:19:23.845Z,17.80
2018-10-06T16:21:53.794Z,17.80
2018-10-06T16:24:22.236Z,17.70
2018-10-06T16:26:50.456Z,17.60
2018-10-06T16:29:19.865Z,17.60
2018-10-06T16:31:47.989Z,17.50
2018-10-06T16:34:16.245Z,17.50
2018-10-06T16:36:44.786Z,17.50
2018-10-06T16:39:14.256Z,17.40
2018-10-06T16:41:43.698Z,17.20
2018-10-06T16:44:12.457Z,17.00
2018-10-06T16:46:41.857Z,16.90
2018-10-06T16:49:10.469Z,16.90
2018-10-06T16:51:38.600Z,16.90
2018-10-06T16:54:07.940Z,16.70
2018-10-06T16:56:37.441Z,16.60
2018-10-06T16:59:06.361Z,16.40
2018-10-06T17:01:34.787Z,16.20
2018-10-06T17:04:02.829Z,16.30
2018-10-06T17:06:32.203Z,16.30
2018-10-06T17:09:00.942Z,16.30
2018-10-06T17:11:29.039Z,16.20
2018-10-06T17:13:57.197Z,16.20
2018-10-06T17:16:26.365Z,16.20
2018-10-06T17:18:54.449Z,16.10
2018-10-06T17:21:24.197Z,16.00
2018-10-06T17:23:53.274Z,15.90
2018-10-06T17:26:21.868Z,15.90
2018-10-06T17:28:50.028Z,15.90
2018-10-06T17:31:18.764Z,15.90
2018-10-06T17:33:48.291Z,15.90
2018-10-06T17:36:16.372Z,15.90
2018-10-06T17:38:45.231Z,15.80
2018-10-06T17:41:13.479Z,15.90
2018-10-06T17:43:43.041Z,15.90
2018-10-06T17:46:11.981Z,15.90
2018-10-06T17:48:41.917Z,15.90
2018-10-06T17:51:10.441Z,15.90
2018-10-06T17:53:38.685Z,15.90
2018-10-06T17:56:07.049Z,15.80
2018-10-06T17:58:36.413Z,15.70
2018-10-06T18:01:05.053Z,15.60
2018-10-06T18:03:33.344Z,15.50
2018-10-06T18:06:03.101Z,15.50
2018-10-06T18:08:32.209Z,15.50
2018-10-06T18:11:00.757Z,15.40
2018-10-06T18:13:28.865Z,15.40
2018-10-06T18:15:58.213Z,15.40
2018-10-06T18:18:27.697Z,15.40
2018-10-06T18:20:56.257Z,15.50
2018-10-06T18:23:24.473Z,15.40
2018-10-06T18:25:52.904Z,15.40
2018-10-06T18:28:22.481Z,15.30
2018-10-06T18:30:50.573Z,15.20
2018-10-06T18:33:19.774Z,15.20
2018-10-06T18:35:47.989Z,15.10
2018-10-06T18:38:17.077Z,15.00
2018-10-06T18:40:46.181Z,14.90
2018-10-06T18:43:14.465Z,14.70
2018-10-06T18:45:44.432Z,14.60
2018-10-06T18:48:13.478Z,14.50
2018-10-06T18:50:42.049Z,14.60
2018-10-06T18:53:10.641Z,14.60
2018-10-06T18:55:39.006Z,14.60
2018-10-06T18:58:07.801Z,14.50
2018-10-06T19:00:36.489Z,14.40
2018-10-06T19:03:06.201Z,14.40
2018-10-06T19:05:34.853Z,14.30
2018-10-06T19:08:04.493Z,14.30
2018-10-06T19:10:32.677Z,14.30
2018-10-06T19:13:02.729Z,14.30
2018-10-06T19:15:32.156Z,14.30
2018-10-06T19:18:01.524Z,14.20
2018-10-06T19:20:30.981Z,14.20
2018-10-06T19:22:59.310Z,14.20
2018-10-06T19:25:28.075Z,14.10
2018-10-06T19:27:56.428Z,14.00
2018-10-06T19:30:24.933Z,13.90
2018-10-06T19:32:54.062Z,13.90
2018-10-06T19:35:22.140Z,13.80
2018-10-06T19:37:51.790Z,13.70
2018-10-06T19:40:20.068Z,13.60
2018-10-06T19:42:48.211Z,13.60
2018-10-06T19:45:16.467Z,13.50
2018-10-06T19:47:44.974Z,13.40
2018-10-06T19:50:14.222Z,13.30
2018-10-06T19:52:42.470Z,13.30
2018-10-06T19:55:10.599Z,13.40
2018-10-06T19:57:38.857Z,13.40
2018-10-06T20:00:07.046Z,13.40
2018-10-06T20:03:38.776Z,13.30
2018-10-06T20:06:07.036Z,13.40
2018-10-06T20:08:38.150Z,13.10
2018-10-06T20:11:06.700Z,13.00
2018-10-06T20:13:35.089Z,12.90
2018-10-06T20:16:03.445Z,12.90
2018-10-06T20:18:32.845Z,12.80
2018-10-06T20:21:01.502Z,12.90
2018-10-06T20:23:30.925Z,12.90
2018-10-06T20:25:59.493Z,12.90
2018-10-06T20:28:27.969Z,12.90
2018-10-06T20:30:56.496Z,12.90
2018-10-06T20:33:25.232Z,12.90
2018-10-06T20:35:53.373Z,12.90
2018-10-06T20:38:22.322Z,12.90
2018-10-06T20:40:50.437Z,12.90
2018-10-06T20:43:18.626Z,12.80
2018-10-06T20:45:47.046Z,12.80
2018-10-06T20:48:15.945Z,12.70
2018-10-06T20:50:44.777Z,12.70
2018-10-06T20:53:13.071Z,12.60
2018-10-06T20:55:41.250Z,12.60
2018-10-06T20:58:10.485Z,12.50
2018-10-06T21:00:39.969Z,12.50
2018-10-06T21:03:08.357Z,12.50
2018-10-06T21:05:37.301Z,12.40
2018-10-06T21:08:06.541Z,12.50
2018-10-06T21:10:34.621Z,12.40
2018-10-06T21:13:03.561Z,12.50
2018-10-06T21:15:31.854Z,12.70
2018-10-06T21:18:00.222Z,13.00
2018-10-06T21:20:28.341Z,13.10
2018-10-06T21:22:57.689Z,13.20
2018-10-06T21:25:25.842Z,13.10
2018-10-06T21:27:54.125Z,13.10
2018-10-06T21:30:22.478Z,13.20
2018-10-06T21:32:51.540Z,13.20
2018-10-06T21:35:20.979Z,13.20
2018-10-06T21:37:49.089Z,13.00
2018-10-06T21:40:17.150Z,13.00
2018-10-06T21:42:45.273Z,13.10
2018-10-06T21:45:14.669Z,13.20
2018-10-06T21:47:43.317Z,13.30
2018-10-06T21:50:12.126Z,13.30
2018-10-06T21:52:40.558Z,13.30
2018-10-06T21:55:09.870Z,13.20
2018-10-06T21:57:38.497Z,13.00
2018-10-06T22:00:06.807Z,12.90
2018-10-06T22:02:35.139Z,12.80
2018-10-06T22:05:03.989Z,12.70
2018-10-06T22:07:32.974Z,12.60
2018-10-06T22:10:01.867Z,12.50
2018-10-06T22:12:30.773Z,12.40
2018-10-06T22:14:58.925Z,12.40
2018-10-06T22:17:27.765Z,12.40
2018-10-06T22:19:56.093Z,12.40
2018-10-06T22:22:24.993Z,12.40
2018-10-06T22:24:53.825Z,12.40
2018-10-06T22:27:22.521Z,12.40
2018-10-06T22:29:51.394Z,12.40
2018-10-06T22:32:19.703Z,12.50
2018-10-06T22:34:48.189Z,12.50
2018-10-06T22:37:17.252Z,12.50
2018-10-06T22:39:45.453Z,12.50
2018-10-06T22:42:14.453Z,12.50
2018-10-06T22:44:43.673Z,12.60
2018-10-06T22:47:12.877Z,12.70
2018-10-06T22:49:41.642Z,12.70
2018-10-06T22:52:09.835Z,12.80
2018-10-06T22:54:37.981Z,12.90
2018-10-06T22:57:06.702Z,12.90
2018-10-06T22:59:34.951Z,12.80
2018-10-06T23:02:04.451Z,12.90
2018-10-06T23:04:32.882Z,12.80
2018-10-06T23:07:01.108Z,12.80
2018-10-06T23:09:29.591Z,12.80
2018-10-06T23:11:58.438Z,12.70
2018-10-06T23:14:26.957Z,12.70
2018-10-06T23:16:55.665Z,12.70
2018-10-06T23:19:23.753Z,12.60
2018-10-06T23:21:52.453Z,12.60
2018-10-06T23:24:21.145Z,12.60
2018-10-06T23:26:49.649Z,12.60
2018-10-06T23:29:18.713Z,12.60
2018-10-06T23:31:46.886Z,12.60
2018-10-06T23:34:16.235Z,12.60
2018-10-06T23:36:44.462Z,12.60
2018-10-06T23:39:12.629Z,12.60
2018-10-06T23:41:41.631Z,12.50
2018-10-06T23:44:11.269Z,12.60
2018-10-06T23:46:40.434Z,12.50
2018-10-06T23:49:08.685Z,12.60
2018-10-06T23:51:37.721Z,12.60
2018-10-06T23:54:06.470Z,12.60
2018-10-06T23:56:34.798Z,12.60
2018-10-06T23:59:02.901Z,12.60
